Tiempo atmosférico en la estación meteorológica de Jávea/ Xàbia, Alacant/Alicante (15 m.)



Fecha
DESCASC
Temp. máxima en grados centígrados (hora)
DESCASC
Temp. mínima en grados centígrados (hora)
DESCASC
Temp. media en grados centígrados
DESCASC
Racha de viento máxima en m/sg (hora)
DESCASC
Velocidad máxima media en intervalos de 10 minutos(hora)
DESCASC
Precipitaciones diarias en mm
DESCASC
Precipitaciones de 00:00 a 06:00 en mm
DESCASC
Precipitaciones de 06:00 a 12:00 en mm
DESCASC
Precipitaciones de 12:00 a 18:00 en mm
DESCASC
Precipitaciones de 18:00 a 24:00 en mm
DESCASC
25-04-2019 20.9 (12:00) 13.8 (03:00) 17.3 9.72 (03:50) 5 (04:30) 0 0 0 0 0
24-04-2019 19.4 (15:00) 5.5 (07:30) 12.4 14.17 (17:40) 8.06 (16:10) 0.4 0.4 0 0 0
23-04-2019 22.2 (16:00) 9.3 (04:50) 15.8 12.78 (15:50) 7.22 (15:40) 0.2 0 0 0 0.2
22-04-2019 14.9 (19:00) 11.6 (00:00) 13.3 15 (11:00) 8.33 (09:10) 59.4 16.6 30.8 12 0
21-04-2019 14.9 (11:30) 13.1 (00:00) 14 16.11 (05:20) 8.89 (04:30) 248.4 0.2 2.2 2.4 243.6
20-04-2019 15.7 (13:30) 14.1 (00:00) 14.9 16.94 (08:40) 9.72 (00:50) 8.4 3.2 4.2 0 1
19-04-2019 15.5 (22:20) 12.3 (00:00) 13.9 15.83 (21:40) 10 (21:40) 7 0 0 1 6
18-04-2019 16.1 (17:50) 14 (00:00) 15.1 15.56 (05:50) 10 (05:50) 5.4 0 0 3.8 1.6
17-04-2019 19.7 (16:20) 14 (00:00) 16.9 8.33 (22:20) 5 (23:50) 0 0 0 0 0
16-04-2019 21.3 (14:40) 10.9 (00:00) 16.1 8.33 (13:50) 4.72 (11:50) 0 0 0 0 0
15-04-2019 21.1 (14:10) 13.2 (00:00) 17.2 15.83 (08:10) 8.61 (08:10) 0 0 0 0 0
14-04-2019 28.6 (16:20) 6.2 (00:00) 17.4 10.83 (20:10) 6.11 (18:40) 0 0 0 0 0
13-04-2019 22 (12:50) 6 (00:00) 14 8.33 (13:50) 5 (13:50) 0 0 0 0 0
12-04-2019 19.9 (17:20) 7.8 (00:00) 13.8 8.33 (21:00) 4.72 (13:00) 0 0 0 0 0
11-04-2019 20.5 (14:30) 8.5 (00:00) 14.5 10.56 (19:40) 5.83 (12:30) 0 0 0 0 0
10-04-2019 22 (15:10) 9.1 (00:00) 15.6 10.83 (12:00) 5.83 (06:20) 1.4 0 0 1.4 0
09-04-2019 22.8 (16:20) 11.8 (00:00) 17.3 15.28 (19:20) 7.5 (11:40) 0.4 0 0 0 0.4
08-04-2019 23.7 (17:50) 11.7 (00:00) 17.7 9.72 (13:50) 4.17 (13:50) 0.4 0 0.4 0 0
07-04-2019 22.5 (17:30) 8.3 (00:00) 15.4 13.61 (11:20) 7.5 (12:10) 0 0 0 0 0
06-04-2019 18.1 (13:30) 6 (00:00) 12.1 13.06 (14:20) 7.22 (15:30) 5 0 0 5 0
05-04-2019 19.8 (12:20) 9.4 (00:00) 14.6 14.44 (18:00) 8.06 (18:00) 5.4 0 0 0 5.4
04-04-2019 17.3 (16:30) 11.4 (00:00) 14.3 10.83 (00:30) 7.22 (00:40) 0 0 0 0 0
03-04-2019 23.3 (14:30) 9.2 (00:00) 16.2 13.33 (22:20) 8.06 (22:20) 0.2 0.2 0 0 0
02-04-2019 21.6 (15:10) 8 (00:00) 14.8 9.72 (19:40) 5.28 (19:30) 4 0 0.2 0 3.8
01-04-2019 17.9 (13:30) 11 (00:00) 14.4 8.61 (00:10) 5.28 (00:10) 0.2 0.2 0 0 0
31-03-2019 14.3 (22:00) 11.4 (00:00) 12.8 11.94 (20:00) 6.39 (17:50) 19.4 3.2 11.6 3.8 0.8
30-03-2019 17.6 (13:00) 7.1 (00:00) 12.4 8.61 (10:50) 5 (10:50) 0 0 0 0 0
29-03-2019 18.1 (12:30) 4.8 (00:00) 11.5 6.39 (11:20) 3.89 (11:20) 0 0 0 0 0
28-03-2019 18.4 (13:20) 5.1 (00:00) 11.7 8.33 (12:40) 5 (11:20) 0 0 0 0 0
27-03-2019 18.2 (14:00) 5.3 (00:00) 11.8 10.56 (13:20) 5.56 (13:00) 0 0 0 0 0

Gráficas

Temp. máximas Temp. mínimas Temp. medias Precipitaciones Rachas de viento máximas Velocidades máximas media en intervalos de 10 minutos

Datos horarios

Fecha y hora oficial Temperatura (ºC) Velocidad del viento (km/h) Dirección del viento Racha (km/h) Dirección de racha Precipitación (mm) Presión (hPa) Tendencia (hPa) Humedad (%)
2019-04-25 23:00:00 17.1 12 Oeste 27 Oeste 0 1015.8 3.4 43
2019-04-25 22:00:00 17.1 14 Noroeste 23 Noroeste 0 1014.8 2.6 47
2019-04-25 21:00:00 16.5 4 Sur 8 Norte 0 1013.4 1.5 65
2019-04-25 20:00:00 17.9 3 Este 17 Este 0 1012.4 0.7 62
2019-04-25 19:00:00 19.2 9 Este 18 Este 0 1012.2 0.1 54
2019-04-25 18:00:00 18.9 8 Sudeste 20 Este 0 1011.9 -0.1 58
2019-04-25 17:00:00 19.1 10 Este 19 Este 0 1011.7 -0.2 55
2019-04-25 16:00:00 19.4 10 Este 22 Este 0 1012.1 0.4 57
2019-04-25 15:00:00 19.9 14 Nordeste 26 Nordeste 0 1012 0.9 53
2019-04-25 14:00:00 19.6 15 Norte 24 Nordeste 0 1011.9 1.2 54
2019-04-25 13:00:00 20 10 Nordeste 19 Nordeste 0 1011.7 1.8 53
2019-04-25 12:00:00 20.9 8 Este 28 Sudoeste 0 1011.1 1.5 54
2019-04-25 11:00:00 19.1 15 Sudoeste 30 Sur 0 1010.7 1.7 59
2019-04-25 10:00:00 17.6 9 Oeste 26 Sur 0 1009.9 1.1 67
2019-04-25 09:00:00 16.7 9 Sur 22 Sudoeste 0 1009.6 1.2 64
2019-04-25 08:00:00 15.1 10 Sur 29 Sudoeste 0 1009 0.3 73
2019-04-25 07:00:00 15.1 7 Este 16 Sudoeste 0 1008.8 -0.1 66
2019-04-25 06:00:00 15.6 12 Oeste 32 Sur 0 1008.4 -0.9 66
2019-04-25 05:00:00 14.8 10 Sudoeste 33 Sur 0 1008.7 -1.3 76
2019-04-25 04:00:00 14.7 15 Sudoeste 35 Sudoeste 0 1008.9 -1 85
2019-04-25 03:00:00 13.9 6 Oeste 13 Noroeste 0 1009.3 -0.9 85
2019-04-25 02:00:00 14.4 3 Sudoeste 11 Oeste 0 1010 0.1 83
2019-04-25 01:00:00 14 5 Sur 14 Sudoeste 0 1009.9 0.4 84
2019-04-25 00:00:00 14.6 9 Sudoeste 24 Sudoeste 0 1010.2 1.5 80
2019-04-24 23:00:00 15.2 5 Sudoeste 32 Oeste 0 1009.9 1.4 77
2019-04-24 22:00:00 15.1 15 Sudoeste 44 Sudoeste 0 1009.5 1 75
2019-04-24 21:00:00 15.6 23 Sudoeste 45 Sudoeste 0 1008.7 0.5 70
2019-04-24 20:00:00 16.8 20 Sudoeste 49 Sudoeste 0 1008.5 0.1 66
2019-04-24 19:00:00 18.3 22 Sudoeste 46 Sudoeste 0 1008.5 -0.4 57
2019-04-24 18:00:00 18.7 26 Sur 51 Sudoeste 0 1008.2 -1.3 56
2019-04-24 17:00:00 19.1 21 Sur 45 Sudoeste 0 1008.4 -1.1 46
2019-04-24 16:00:00 19 29 Sur 50 Sur 0 1008.9 -0.7 49
2019-04-24 15:00:00 19.2 26 Sudoeste 48 Sudoeste 0 1009.5 -0.2 37
2019-04-24 14:00:00 18.5 25 Sur 50 Sur 0 1009.5 -0.3 43
2019-04-24 13:00:00 18.4 22 Sur 42 Sur 0 1009.6 0.2 38
2019-04-24 12:00:00 18.2 18 Sur 42 Sur 0 1009.7 1.2 38
2019-04-24 11:00:00 17.5 14 Sur 27 Sur 0 1009.8 1.8 45
2019-04-24 10:00:00 16 8 Sur 17 Sudoeste 0 1009.4 2.3 45
2019-04-24 09:00:00 11.8 5 Oeste 13 Oeste 0 1008.5 1.9 69
2019-04-24 08:00:00 7 10 Oeste 13 Oeste 0 1008 2.2 88
2019-04-24 07:00:00 6.1 4 Sudoeste 14 Sudoeste 0 1007.1 2.1 85
2019-04-24 06:00:00 6.7 8 Sudoeste 13 Sudoeste 0 1006.6 2 85
2019-04-24 05:00:00 7.5 8 Sudoeste 14 Sudoeste 0 1005.8 1.7 82
2019-04-24 04:00:00 8 3 Oeste 8 Sur 0 1005 1.5 82
2019-04-24 03:00:00 9.2 5 Oeste 18 Oeste 0 1004.6 1.8 78
2019-04-24 02:00:00 11.1 7 Sudoeste 15 Oeste 0 1004.1 2.2 78
2019-04-24 01:00:00 12.4 4 Noroeste 9 Oeste 0.4 1003.5 3.4 81
2019-04-24 00:00:00 14.4 6 Oeste 20 Norte 0.2 1002.8 3.5 59
2019-04-23 23:00:00 14.7 5 Noroeste 26 Oeste 0 1001.9 3.2 80
2019-04-23 22:00:00 14.8 5 Oeste 19 Sudoeste 0 1000.1 1.8 81
2019-04-23 21:00:00 15.4 12 Sur 36 Sudoeste 0 999.3 0.3 77
2019-04-23 20:00:00 16.5 22 Sudoeste 40 Sur 0 998.7 0.6 59
2019-04-23 19:00:00 17 5 Sur 12 Noroeste 0 998.3 0.5 71
2019-04-23 18:00:00 16.4 14 Noroeste 34 Norte 0 999 1.5 66
2019-04-23 17:00:00 19.1 15 Sudoeste 39 Sudoeste 0 998.1 0.8 63
2019-04-23 16:00:00 22.1 18 Sudoeste 46 Sur 0 997.8 -0.1 46
2019-04-23 15:00:00 21.3 17 Sudoeste 31 Sudoeste 0 997.5 -0.8 50
2019-04-23 14:00:00 21.5 13 Sudoeste 26 Sudoeste 0 997.3 -0.7 56
2019-04-23 13:00:00 19.9 9 Nordeste 15 Nordeste 0 997.9 0.1 60
2019-04-23 12:00:00 19.7 6 Este 13 Nordeste 0 998.3 0.9 50
2019-04-23 11:00:00 17.2 6 Nordeste 9 Nordeste 0 998 0.9 73
2019-04-23 10:00:00 16 0 Calma 12 Sudoeste 0 997.8 1 79
2019-04-23 09:00:00 13.2 6 Sudoeste 13 Oeste 0 997.4 0.5 88
2019-04-23 08:00:00 11.1 7 Oeste 12 Oeste 0 997.1 -0.2 92
2019-04-23 07:00:00 10.2 8 Oeste 15 Oeste 0 996.8 -0.8 94
2019-04-23 06:00:00 10.4 6 Oeste 12 Noroeste 0 996.9 -1.3 94
2019-04-23 05:00:00 9.3 6 Oeste 9 Oeste 0 997.3 -1.3 93
2019-04-23 04:00:00 9.9 4 Oeste 10 Sudoeste 0 997.6 -1.4 92
2019-04-23 03:00:00 10.5 6 Sudoeste 13 Oeste 0 998.2 -1.5 91
2019-04-23 02:00:00 11.2 6 Oeste 13 Sudoeste 0 998.6 -1.4 89
2019-04-23 01:00:00 12.6 5 Oeste 10 Oeste 0 999 -0.9 85
2019-04-23 00:00:00 13.2 4 Oeste 15 Sudoeste 0 999.7 0.5 85
2019-04-22 23:00:00 13.3 5 Oeste 11 Oeste 0 1000 1.2 84
2019-04-22 22:00:00 13.6 7 Oeste 13 Oeste 0 999.9 0.9 82
2019-04-22 21:00:00 14.3 8 Oeste 18 Oeste 0 999.2 0.2 74
2019-04-22 20:00:00 14.8 8 Oeste 24 Noroeste 0 998.8 -0.3 73
2019-04-22 19:00:00 14.9 13 Noroeste 25 Oeste 0 999 0.2 74
2019-04-22 18:00:00 14.3 13 Noroeste 42 Norte 0 999 0.2 79
2019-04-22 17:00:00 14.5 15 Noroeste 37 Norte 0 999.1 0 80
2019-04-22 16:00:00 14.5 14 Noroeste 42 Noroeste 0 998.8 -1 75
2019-04-22 15:00:00 13.5 21 Oeste 45 Oeste 0.8 998.8 -1.3 85
2019-04-22 14:00:00 12.3 22 Oeste 46 Noroeste 4.6 999.1 -0.7 94
2019-04-22 13:00:00 11.7 21 Noroeste 47 Noroeste 6.6 999.8 0.4 96
2019-04-22 12:00:00 12 25 Noroeste 47 Noroeste 7.4 1000.1 0.9 96
2019-04-22 11:00:00 12.2 19 Norte 54 Norte 5 999.8 0.8 96
2019-04-22 10:00:00 12.8 22 Noroeste 48 Norte 4.6 999.4 0.6 96
2019-04-22 09:00:00 13.1 28 Norte 53 Noroeste 3 999.2 -0.1 96
2019-04-22 08:00:00 12.7 26 Norte 52 Noroeste 7.2 999 -1.2 96
2019-04-22 07:00:00 13.2 26 Norte 47 Norte 3.6 998.8 -1.9 96
2019-04-22 06:00:00 13.1 23 Norte 45 Noroeste 1.2 999.3 -2.1 96
2019-04-22 05:00:00 13.2 22 Norte 49 Norte 1 1000.2 -2 96
2019-04-22 04:00:00 13.4 21 Norte 45 Norte 2.6 1000.7 -2.6 97
2019-04-22 03:00:00 13.5 21 Norte 45 Norte 2.2 1001.4 -2 97
2019-04-22 02:00:00 13.5 22 Norte 40 Norte 4.2 1002.2 -1.5 97
2019-04-22 01:00:00 13.5 20 Norte 40 Norte 5.4 1003.3 -0.6 97
2019-04-22 00:00:00 13.3 23 Nordeste 40 Nordeste 27.4 1003.4 -0.7 97
2019-04-21 23:00:00 13.6 18 Noroeste 31 Norte 45.2 1003.7 0 97
2019-04-21 22:00:00 13.5 17 Noroeste 32 Noroeste 47.8 1003.9 0.7 97
2019-04-21 21:00:00 13.5 15 Noroeste 41 Noroeste 50.2 1004.1 0.6 97
2019-04-21 20:00:00 13.3 18 Noroeste 44 Norte 54.2 1003.7 -0.5 96
2019-04-21 19:00:00 13.5 24 Norte 49 Nordeste 18.8 1003.2 -1.8 95
2019-04-21 18:00:00 13.6 28 Norte 57 Norte 1.4 1003.5 -2 94
2019-04-21 17:00:00 13.8 25 Norte 52 Norte 0.6 1004.2 -1.8 94
2019-04-21 16:00:00 14.4 30 Norte 53 Norte 0 1005 -1.9 86
2019-04-21 15:00:00 14.6 24 Norte 47 Norte 0 1005.5 -1.5 86
2019-04-21 14:00:00 14.6 26 Nordeste 44 Nordeste 0 1006 -1.5 88
2019-04-21 13:00:00 14.2 26 Nordeste 43 Norte 0.4 1006.9 -0.9 92
2019-04-21 12:00:00 14.5 23 Nordeste 39 Nordeste 0.8 1007 -1.3 92
2019-04-21 11:00:00 14.5 20 Nordeste 43 Nordeste 0 1007.5 -1 89
2019-04-21 10:00:00 13.7 22 Norte 47 Norte 0.8 1007.8 -1.2 92
2019-04-21 09:00:00 14.2 23 Norte 39 Norte 0 1008.3 -0.9 86
2019-04-21 08:00:00 13.7 24 Nordeste 44 Norte 0.6 1008.5 -1.5 88
2019-04-21 07:00:00 13.3 27 Norte 47 Norte 0 1009 -1.5 87
2019-04-21 06:00:00 13.7 30 Norte 58 Norte 0 1009.2 -2.3 83
2019-04-21 05:00:00 14.3 30 Norte 53 Nordeste 0 1010 -2.6 75
2019-04-21 04:00:00 14.4 26 Norte 50 Norte 0 1010.5 -2.5 76
2019-04-21 03:00:00 14.2 25 Norte 50 Norte 0 1011.5 -2.1 76
2019-04-21 02:00:00 14 27 Norte 46 Norte 0.2 1012.6 -1.2 82
2019-04-21 01:00:00 14.2 26 Norte 51 Norte 0 1013 -0.6 87
2019-04-21 00:00:00 14.2 23 Norte 42 Nordeste 0.6 1013.6 0.4 91
2019-04-20 23:00:00 14.4 23 Nordeste 38 Nordeste 0.4 1013.8 0.9 90
2019-04-20 22:00:00 15 26 Nordeste 48 Norte 0 1013.6 0.7 82
2019-04-20 21:00:00 15 24 Norte 45 Norte 0 1013.2 0.1 82
2019-04-20 20:00:00 14.9 24 Norte 44 Norte 0 1012.9 -0.1 84
2019-04-20 19:00:00 15 28 Norte 45 Norte 0 1012.9 -0.2 84
2019-04-20 18:00:00 15.1 27 Norte 55 Norte 0 1013.1 -0.3 83
2019-04-20 17:00:00 15.5 25 Norte 48 Norte 0 1013 -0.1 81
2019-04-20 16:00:00 15.7 26 Norte 42 Norte 0 1013.1 0.1 80
2019-04-20 15:00:00 15.4 23 Norte 50 Nordeste 0 1013.4 0.4 76
2019-04-20 14:00:00 15.6 32 Nordeste 53 Nordeste 0 1013.1 0.1 70
2019-04-20 13:00:00 15.5 32 Nordeste 59 Nordeste 0 1013 0.2 73
2019-04-20 12:00:00 14.7 29 Nordeste 49 Nordeste 0.8 1013 0.5 80
2019-04-20 11:00:00 14.9 26 Nordeste 48 Nordeste 0.2 1013 0.9 82
2019-04-20 10:00:00 14.5 29 Nordeste 48 Nordeste 0 1012.8 0.8 84
2019-04-20 09:00:00 14.5 27 Nordeste 61 Nordeste 1.8 1012.5 0.2 83
2019-04-20 08:00:00 14.7 27 Nordeste 54 Nordeste 1 1012.1 -1.3 85
2019-04-20 07:00:00 15 23 Nordeste 57 Nordeste 0.4 1012 -1.3 84
2019-04-20 06:00:00 14.7 24 Norte 51 Norte 1.2 1012.3 -1.7 90
2019-04-20 05:00:00 15.1 22 Norte 44 Norte 0 1013.4 -0.8 87
2019-04-20 04:00:00 15.1 24 Norte 42 Norte 0.2 1013.3 -1 88
2019-04-20 03:00:00 15.1 26 Norte 41 Nordeste 0 1014 -1.9 89
2019-04-20 02:00:00 15 24 Norte 56 Nordeste 0.2 1014.2 -1.2 90
2019-04-20 01:00:00 15.1 32 Nordeste 57 Nordeste 1.6 1014.3 -0.6 89
2019-04-20 00:00:00 15.3 27 Nordeste 49 Nordeste 1.8 1015.9 1.6 90
2019-04-19 23:00:00 15.2 31 Nordeste 52 Nordeste 1.4 1015.4 0.6 91
2019-04-19 22:00:00 15.3 27 Nordeste 57 Nordeste 0 1014.9 0.2 90
2019-04-19 21:00:00 15.2 29 Nordeste 50 Nordeste 1.8 1014.3 0.4 92
2019-04-19 20:00:00 15.1 23 Nordeste 48 Nordeste 0.8 1014.8 0.6 94
2019-04-19 19:00:00 15.1 21 Nordeste 47 Nordeste 0.2 1014.7 0.5 95
2019-04-19 18:00:00 14.9 27 Nordeste 51 Nordeste 0.2 1013.9 -0.1 95
2019-04-19 17:00:00 14.9 21 Nordeste 39 Nordeste 0.2 1014.2 0 95
2019-04-19 16:00:00 15 22 Nordeste 39 Nordeste 0.2 1014.2 -0.1 95
2019-04-19 15:00:00 15.3 22 Nordeste 41 Nordeste 0 1014 -0.2 94
2019-04-19 14:00:00 14.6 12 Norte 29 Norte 0.2 1014.2 0.1 93
2019-04-19 13:00:00 14.3 5 Oeste 18 Noroeste 0.2 1014.3 0.5 88
2019-04-19 12:00:00 14.8 5 Oeste 18 Noroeste 0 1014.2 0.2 85
2019-04-19 11:00:00 14.9 4 Sudoeste 12 Oeste 0 1014.1 0.4 89
2019-04-19 10:00:00 14.6 4 Oeste 9 Sudoeste 0 1013.8 0.9 93
2019-04-19 09:00:00 13.4 4 Sudoeste 10 Sudoeste 0 1014 1 94
2019-04-19 08:00:00 12.7 5 Sudoeste 12 Oeste 0 1013.7 0.6 94
2019-04-19 07:00:00 12.6 3 Sur 8 Sudoeste 0 1012.9 -0.6 94
2019-04-19 06:00:00 12.6 5 Sudoeste 8 Sudoeste 0 1013 -0.5 94
2019-04-19 05:00:00 13 5 Oeste 9 Oeste 0 1013.1 -0.1 94
2019-04-19 04:00:00 13.2 4 Sudoeste 10 Oeste 0 1013.5 0.2 94
2019-04-19 03:00:00 13.3 5 Oeste 9 Oeste 0 1013.5 0.4 93
2019-04-19 02:00:00 13.5 3 Sudoeste 7 Noroeste 0 1013.2 1.3 91
2019-04-19 01:00:00 13.8 3 Sudoeste 10 Sur 0 1013.3 2 89
2019-04-19 00:00:00 14.1 3 Oeste 17 Sur 0 1013.1 2.9 86
2019-04-18 23:00:00 14.6 10 Oeste 33 Noroeste 0 1011.9 1.6 78
2019-04-18 22:00:00 14.8 18 Noroeste 34 Noroeste 0 1011.3 1.5 80
2019-04-18 21:00:00 14.6 12 Noroeste 27 Noroeste 0.2 1010.2 1.1 91
2019-04-18 20:00:00 15.7 6 Noroeste 20 Noroeste 0.6 1010.3 1.1 95
2019-04-18 19:00:00 15.5 11 Oeste 19 Sudoeste 0.8 1009.8 0.6 95
2019-04-18 18:00:00 16 6 Nordeste 20 Nordeste 0 1009.1 -0.8 95
2019-04-18 17:00:00 15.7 10 Norte 23 Norte 0.6 1009.2 -1 95
2019-04-18 16:00:00 15.4 15 Norte 24 Norte 0.8 1009.2 -1.7 94
2019-04-18 15:00:00 15.1 10 Norte 24 Norte 0.8 1009.9 -1.6 94
2019-04-18 14:00:00 15 14 Norte 31 Norte 1.2 1010.2 -1.5 94
2019-04-18 13:00:00 14.9 14 Norte 27 Norte 0.4 1010.9 -0.4 92
2019-04-18 12:00:00 15.4 12 Norte 28 Norte 0 1011.5 0.2 88
2019-04-18 11:00:00 15.5 14 Norte 35 Norte 0 1011.7 0 84
2019-04-18 10:00:00 15.5 23 Norte 47 Norte 0 1011.3 -0.6 82
2019-04-18 09:00:00 15.2 27 Norte 51 Nordeste 0 1011.3 -0.4 83
2019-04-18 08:00:00 15.3 23 Norte 49 Norte 0 1011.7 -0.7 85
2019-04-18 07:00:00 15.1 24 Norte 52 Norte 0 1011.9 -1.4 82
2019-04-18 06:00:00 14.9 33 Norte 56 Norte 0 1011.7 -1.5 82
2019-04-18 05:00:00 15 28 Norte 48 Norte 0 1012.4 -2.4 82
2019-04-18 04:00:00 15.1 26 Norte 43 Norte 0 1013.3 -1.2 81
2019-04-18 03:00:00 14.9 19 Norte 42 Noroeste 0 1013.2 -1.2 81
2019-04-18 02:00:00 15.2 23 Norte 42 Norte 0 1014.8 0.2 82
2019-04-18 01:00:00 15.4 16 Norte 30 Norte 0 1014.5 0.4 80
2019-04-18 00:00:00 15.5 15 Nordeste 29 Norte 0 1014.4 0.2 81
2019-04-17 23:00:00 15.5 15 Nordeste 30 Norte 0 1014.6 0.4 81
2019-04-17 22:00:00 15.5 15 Norte 27 Norte 0 1014.1 -0.5 81
2019-04-17 21:00:00 15.5 13 Nordeste 22 Norte 0 1014.2 -0.3 79
2019-04-17 20:00:00 16.2 10 Norte 21 Norte 0 1014.2 -0.7 77
2019-04-17 19:00:00 17.1 12 Norte 21 Norte 0 1014.6 -1 69
2019-04-17 18:00:00 17.4 12 Nordeste 23 Nordeste 0 1014.5 -1.6 65
2019-04-17 17:00:00 18.4 15 Nordeste 23 Norte 0 1014.9 -1.7 60
2019-04-17 16:00:00 18.8 9 Nordeste 21 Este 0 1015.6 -1.1 58
2019-04-17 15:00:00 18.2 14 Nordeste 22 Este 0 1016.1 -1.5 62
2019-04-17 14:00:00 18.7 11 Nordeste 22 Este 0 1016.6 -1 62
2019-04-17 13:00:00 18.3 12 Nordeste 27 Este 0 1016.7 -0.6 64
2019-04-17 12:00:00 18.4 16 Nordeste 26 Nordeste 0 1017.6 0.1 62
2019-04-17 11:00:00 18.3 13 Norte 24 Nordeste 0 1017.6 0.1 63
2019-04-17 10:00:00 17 9 Nordeste 21 Nordeste 0 1017.3 0.3 69
2019-04-17 09:00:00 15.9 11 Norte 20 Nordeste 0 1017.5 0.2 73
2019-04-17 08:00:00 14.5 8 Norte 19 Nordeste 0 1017.5 0 80
2019-04-17 07:00:00 14.2 10 Norte 22 Nordeste 0 1017 -0.7 81
2019-04-17 06:00:00 14.4 15 Norte 25 Norte 0 1017.3 -0.8 81
2019-04-17 05:00:00 14.5 12 Norte 26 Norte 0 1017.5 -1.3 83
2019-04-17 04:00:00 14.1 15 Norte 26 Norte 0 1017.7 -1.6 83
2019-04-17 03:00:00 14.2 13 Noroeste 24 Norte 0 1018.1 -1.1 86
2019-04-17 02:00:00 14.3 8 Norte 13 Norte 0 1018.8 -0.3 85
2019-04-17 01:00:00 14.8 7 Nordeste 14 Nordeste 0 1019.3 1 84
2019-04-17 00:00:00 14.9 8 Nordeste 12 Nordeste 0 1019.2 1.3 83
2019-04-16 23:00:00 14.7 6 Norte 14 Norte 0 1019.1 1.4 83
2019-04-16 22:00:00 15 8 Norte 20 Norte 0 1018.3 0.5 84
2019-04-16 21:00:00 15.2 7 Norte 17 Nordeste 0 1017.9 0 83
2019-04-16 20:00:00 16.3 8 Nordeste 17 Nordeste 0 1017.7 -0.2 76
2019-04-16 19:00:00 17.3 10 Este 19 Nordeste 0 1017.8 -0.4 70
2019-04-16 18:00:00 18.4 9 Nordeste 22 Nordeste 0 1017.9 -0.5 64
2019-04-16 17:00:00 19.4 14 Norte 25 Norte 0 1017.9 -0.7 61
2019-04-16 16:00:00 19.8 13 Nordeste 24 Norte 0 1018.2 -0.5 58
2019-04-16 15:00:00 20.8 14 Norte 25 Norte 0 1018.4 -0.3 53
2019-04-16 14:00:00 19.3 17 Nordeste 30 Nordeste 0 1018.6 0.4 59
2019-04-16 13:00:00 18.2 15 Nordeste 25 Nordeste 0 1018.7 1 66
2019-04-16 12:00:00 19.4 15 Norte 27 Norte 0 1018.7 1.7 62
2019-04-16 11:00:00 18 12 Norte 23 Norte 0 1018.2 2 64
2019-04-16 10:00:00 16.1 9 Norte 20 Nordeste 0 1017.7 2.3 74
2019-04-16 09:00:00 14.5 3 Este 14 Norte 0 1017 2.3 93
2019-04-16 08:00:00 11.2 5 Oeste 8 Oeste 0 1016.2 1.6 93
2019-04-16 07:00:00 11.8 3 Sudeste 8 Sur 0 1015.4 0.8 92
2019-04-16 06:00:00 12.9 3 Sudoeste 15 Norte 0 1014.7 -0.2 92
2019-04-16 05:00:00 13.1 4 Sudoeste 18 Noroeste 0 1014.6 -0.5 91
2019-04-16 04:00:00 13.3 4 Sudoeste 21 Noroeste 0 1014.6 -0.4 91
2019-04-16 03:00:00 12.2 6 Sudoeste 13 Oeste 0 1014.9 0.4 92
2019-04-16 02:00:00 12.8 5 Sudoeste 12 Oeste 0 1015.1 0.8 91
2019-04-16 01:00:00 12.9 6 Sudoeste 9 Sudoeste 0 1015 1.2 91
2019-04-16 00:00:00 13.2 3 Oeste 7 Sudoeste 0 1014.5 1.5 90
2019-04-15 23:00:00 13.8 3 Sudeste 7 Oeste 0 1014.3 1.7 87
2019-04-15 22:00:00 14.7 4 Sudoeste 10 Sudoeste 0 1013.8 0.8 84
2019-04-15 21:00:00 16.3 5 Sudoeste 22 Noroeste 0 1013 0.1 74
2019-04-15 20:00:00 17.5 12 Norte 26 Noroeste 0 1012.6 -0.2 70
2019-04-15 19:00:00 17.2 17 Noroeste 29 Noroeste 0 1013 -0.2 75
2019-04-15 18:00:00 17.5 17 Norte 35 Norte 0 1012.9 -0.7 73
2019-04-15 17:00:00 18.7 22 Norte 45 Norte 0 1012.8 -1.1 68
2019-04-15 16:00:00 20.6 22 Norte 46 Noroeste 0 1013.2 -1.2 57
2019-04-15 15:00:00 20.7 26 Norte 48 Norte 0 1013.6 -1.2 54
2019-04-15 14:00:00 20.8 21 Noroeste 46 Noroeste 0 1013.9 -0.9 56
2019-04-15 13:00:00 19.7 23 Noroeste 48 Norte 0 1014.4 -0.1 56
2019-04-15 12:00:00 18.5 28 Noroeste 53 Noroeste 0 1014.8 0.4 64
2019-04-15 11:00:00 17.7 28 Noroeste 52 Noroeste 0 1014.8 0.8 70
2019-04-15 10:00:00 16.4 24 Noroeste 49 Noroeste 0 1014.5 0.7 76
2019-04-15 09:00:00 16.1 25 Noroeste 57 Noroeste 0 1014.4 0.7 75
2019-04-15 08:00:00 14.9 28 Noroeste 54 Noroeste 0 1014 0.5 82
2019-04-15 07:00:00 15 23 Noroeste 48 Noroeste 0 1013.8 0.5 83
2019-04-15 06:00:00 15.1 16 Noroeste 43 Noroeste 0 1013.7 0.2 83
2019-04-15 05:00:00 15.6 12 Oeste 30 Noroeste 0 1013.5 -0.1 71
2019-04-15 04:00:00 15.9 5 Oeste 23 Oeste 0 1013.3 0 71
2019-04-15 03:00:00 15.5 11 Sudoeste 21 Sudoeste 0 1013.5 0.4 80
2019-04-15 02:00:00 15.9 10 Sudoeste 17 Oeste 0 1013.6 0.7 78
2019-04-15 01:00:00 17.9 10 Oeste 18 Oeste 0 1013.3 0.7 48
2019-04-15 00:00:00 18.1 8 Oeste 15 Sudoeste 0 1013.1 1.1 47
2019-04-14 23:00:00 19.3 11 Sudoeste 24 Sudoeste 0 1012.9 1.4 43
2019-04-14 22:00:00 20.4 11 Sudoeste 28 Oeste 0 1012.6 1 33
2019-04-14 21:00:00 21.2 10 Oeste 39 Sudoeste 0 1012 0 30
2019-04-14 20:00:00 23.3 21 Sudoeste 38 Sudoeste 0 1011.5 -0.7 27
2019-04-14 19:00:00 25.2 19 Sudoeste 37 Sur 0 1011.6 -1.3 26
2019-04-14 18:00:00 26 20 Sudoeste 39 Sur 0 1012 -1.4 25
2019-04-14 17:00:00 28 13 Sudoeste 26 Sudoeste 0 1012.2 -1.6 26
2019-04-14 16:00:00 28.1 13 Sudeste 24 Sudeste 0 1012.9 -1.2 16
2019-04-14 15:00:00 27.5 6 Sudeste 19 Este 0 1013.4 -0.8 18
2019-04-14 14:00:00 25.5 9 Este 18 Este 0 1013.8 -0.5 27
2019-04-14 13:00:00 24.6 13 Este 22 Este 0 1014.1 0.1 26
2019-04-14 12:00:00 26.7 8 Oeste 24 Oeste 0 1014.2 0.1 18
2019-04-14 11:00:00 24.6 12 Oeste 22 Noroeste 0 1014.3 0.3 23
2019-04-14 10:00:00 21.5 4 Norte 12 Sudoeste 0 1014 0 39
2019-04-14 09:00:00 12.5 3 Sur 11 Sudoeste 0 1014.1 0.1 59
2019-04-14 08:00:00 8 4 Sudoeste 11 Oeste 0 1014 -0.4 66
2019-04-14 07:00:00 6.2 5 Sudoeste 11 Sudoeste 0 1014 -0.9 79
2019-04-14 06:00:00 7.2 10 Oeste 15 Sudoeste 0 1014 -1.1 79
2019-04-14 05:00:00 7.3 8 Sudoeste 12 Sudoeste 0 1014.4 -1.1 82
2019-04-14 04:00:00 8 8 Sudoeste 13 Oeste 0 1014.9 -1 78
2019-04-14 03:00:00 10.3 4 Sudoeste 12 Oeste 0 1015.1 -1 64
2019-04-14 02:00:00 13 5 Oeste 14 Noroeste 0 1015.5 -0.7 53
2019-04-14 01:00:00 13.6 6 Oeste 17 Oeste 0 1015.9 0.1 54
2019-04-14 00:00:00 14.9 14 Sudoeste 23 Sudoeste 0 1016.1 0.3 52
2019-04-13 23:00:00 15.4 15 Sudoeste 26 Sudoeste 0 1016.2 0.5 54
2019-04-13 22:00:00 14.8 11 Sudoeste 20 Sudoeste 0 1015.8 0.3 59
2019-04-13 21:00:00 15.2 6 Sudoeste 20 Sudoeste 0 1015.8 0 64
2019-04-13 20:00:00 17.8 8 Sudoeste 18 Sudoeste 0 1015.7 -0.1 44
2019-04-13 19:00:00 19.6 7 Este 16 Nordeste 0 1015.5 -0.5 32
2019-04-13 18:00:00 18.6 9 Nordeste 18 Este 0 1015.8 -0.6 37
2019-04-13 17:00:00 19.2 8 Nordeste 22 Nordeste 0 1015.8 -0.8 46
2019-04-13 16:00:00 19 11 Este 24 Este 0 1016 -0.8 51
2019-04-13 15:00:00 21.6 11 Nordeste 23 Este 0 1016.4 -0.6 38
2019-04-13 14:00:00 20.8 16 Norte 30 Norte 0 1016.6 -0.5 38
2019-04-13 13:00:00 21.7 15 Norte 24 Norte 0 1016.8 0.1 29
2019-04-13 12:00:00 20.8 14 Norte 25 Norte 0 1017 0.5 28
2019-04-13 11:00:00 19.5 12 Norte 26 Norte 0 1017.1 1.2 38
2019-04-13 10:00:00 16.6 5 Este 10 Sudeste 0 1016.7 1.2 51
2019-04-13 09:00:00 10.4 4 Oeste 12 Sudoeste 0 1016.5 1.3 82
2019-04-13 08:00:00 6.2 7 Sudoeste 12 Sudoeste 0 1015.9 0.7 88
2019-04-13 07:00:00 6.2 8 Sudoeste 12 Sudoeste 0 1015.5 0 86
2019-04-13 06:00:00 7 9 Sudoeste 14 Oeste 0 1015.2 -0.5 86
2019-04-13 05:00:00 6.8 9 Sudoeste 11 Sudoeste 0 1015.2 -0.7 87
2019-04-13 04:00:00 7.8 6 Sudoeste 12 Sudoeste 0 1015.5 0 84
2019-04-13 03:00:00 8.3 4 Sudoeste 10 Oeste 0 1015.7 0.4 79
2019-04-13 02:00:00 10.1 7 Oeste 12 Oeste 0 1015.9 0.6 76
2019-04-13 01:00:00 11.9 6 Oeste 13 Sudoeste 0 1015.5 0.6 70
2019-04-13 00:00:00 13 7 Sudoeste 22 Sudoeste 0 1015.3 0.6 68
2019-04-12 23:00:00 13.7 10 Sudoeste 24 Oeste 0 1015.3 0.6 65
2019-04-12 22:00:00 13.6 5 Sudoeste 19 Oeste 0 1014.9 0.2 66
2019-04-12 21:00:00 14.1 13 Sudoeste 30 Sudoeste 0 1014.7 -0.1 65
2019-04-12 20:00:00 16 10 Sudoeste 23 Sudoeste 0 1014.7 0 55
2019-04-12 19:00:00 18.9 8 Sur 20 Sudoeste 0 1014.7 -0.4 41
2019-04-12 18:00:00 19.3 10 Sudeste 22 Sur 0 1014.8 -0.7 39
2019-04-12 17:00:00 19.4 8 Sudeste 21 Este 0 1014.7 -0.9 34
2019-04-12 16:00:00 18.1 13 Este 21 Este 0 1015.1 -0.5 38
2019-04-12 15:00:00 18.4 10 Este 20 Nordeste 0 1015.5 -0.3 39
2019-04-12 14:00:00 18.7 10 Nordeste 23 Nordeste 0 1015.6 0.3 32
2019-04-12 13:00:00 18.8 17 Norte 25 Nordeste 0 1015.6 0.6 33
2019-04-12 12:00:00 19.1 15 Norte 24 Noroeste 0 1015.8 0.7 31
2019-04-12 11:00:00 17.8 15 Norte 29 Norte 0 1015.3 0.4 32
2019-04-12 10:00:00 16.3 13 Noroeste 23 Noroeste 0 1015 0.7 34
2019-04-12 09:00:00 12.1 10 Oeste 18 Oeste 0 1015.1 0.8 52
2019-04-12 08:00:00 8.7 8 Oeste 15 Oeste 0 1014.9 0.5 64
2019-04-12 07:00:00 8.8 10 Oeste 15 Oeste 0 1014.3 -0.1 65
2019-04-12 06:00:00 7.8 11 Sudoeste 14 Oeste 0 1014.3 -0.5 72
2019-04-12 05:00:00 11.2 7 Oeste 19 Noroeste 0 1014.4 -0.6 56
2019-04-12 04:00:00 13.5 12 Noroeste 26 Noroeste 0 1014.4 -0.6 50
2019-04-12 03:00:00 11.9 12 Noroeste 18 Noroeste 0 1014.8 0.1 57
2019-04-12 02:00:00 8.5 8 Oeste 12 Oeste 0 1015 0.5 80
2019-04-12 01:00:00 8.8 6 Oeste 10 Sudoeste 0 1015 0.8 80
2019-04-12 00:00:00 10.9 6 Oeste 11 Oeste 0 1014.7 1.2 71
2019-04-11 23:00:00 13.1 7 Oeste 13 Oeste 0 1014.5 1.5 62
2019-04-11 22:00:00 13.7 7 Oeste 22 Oeste 0 1014.2 1.2 61
2019-04-11 21:00:00 14.4 8 Oeste 34 Sur 0 1013.5 0.5 60
2019-04-11 20:00:00 15.8 16 Sudoeste 38 Sudoeste 0 1013 -0.1 51
2019-04-11 19:00:00 17.8 17 Sur 37 Sudoeste 0 1013 -0.7 48
2019-04-11 18:00:00 18.9 19 Sudoeste 36 Sur 0 1013 -1.1 40
2019-04-11 17:00:00 19.6 19 Sur 33 Sur 0 1013.1 -1 34
2019-04-11 16:00:00 20.2 15 Sur 28 Sur 0 1013.7 -0.8 33
2019-04-11 15:00:00 18.9 10 Este 24 Norte 0 1014.1 -0.5 31
2019-04-11 14:00:00 19.7 15 Norte 29 Norte 0 1014.1 -0.1 31
2019-04-11 13:00:00 19 17 Norte 32 Norte 0 1014.5 0.6 33
2019-04-11 12:00:00 18.4 18 Norte 32 Norte 0 1014.6 1.2 33
2019-04-11 11:00:00 17.6 16 Noroeste 31 Norte 0 1014.2 1.1 34
2019-04-11 10:00:00 16.2 15 Noroeste 30 Noroeste 0 1013.9 1.4 40
2019-04-11 09:00:00 14.3 13 Noroeste 28 Noroeste 0 1013.4 0.7 45
2019-04-11 08:00:00 9 8 Oeste 14 Sudoeste 0 1013.1 0.6 66
2019-04-11 07:00:00 8.9 9 Sudoeste 21 Noroeste 0 1012.5 0.2 66
2019-04-11 06:00:00 10.3 10 Oeste 20 Noroeste 0 1012.7 0.2 60
2019-04-11 05:00:00 12.8 9 Noroeste 21 Noroeste 0 1012.5 -0.1 49
2019-04-11 04:00:00 13.5 14 Noroeste 27 Noroeste 0 1012.3 0 47
2019-04-11 03:00:00 13.7 12 Noroeste 29 Norte 0 1012.5 0.5 47
2019-04-11 02:00:00 13.9 15 Noroeste 31 Noroeste 0 1012.6 0.5 46
2019-04-11 01:00:00 10.5 12 Oeste 25 Oeste 0 1012.3 0.4 62
2019-04-11 00:00:00 9.1 9 Oeste 15 Oeste 0 1012 1.2 78
2019-04-10 23:00:00 9.9 4 Oeste 13 Sudoeste 0 1012.1 2.1 80
2019-04-10 22:00:00 10.9 5 Noroeste 8 Oeste 0 1011.9 1.9 78
2019-04-10 21:00:00 13.6 6 Sur 17 Oeste 0 1010.8 0.2 66
2019-04-10 20:00:00 15.8 8 Oeste 21 Oeste 0 1010 0 51
2019-04-10 19:00:00 15.7 13 Oeste 21 Oeste 0 1010 0.4 61
2019-04-10 18:00:00 13.6 18 Noroeste 32 Norte 0.8 1010.6 0.7 62
2019-04-10 17:00:00 15.2 6 Este 36 Noroeste 0.6 1010 -0.2 62
2019-04-10 16:00:00 17.8 15 Norte 26 Nordeste 0 1009.6 -1.1 39
2019-04-10 15:00:00 21.7 13 Norte 28 Norte 0 1009.9 -1.2 30
2019-04-10 14:00:00 18.5 13 Norte 32 Norte 0 1010.2 -0.9 34
2019-04-10 13:00:00 20.2 17 Oeste 38 Oeste 0 1010.7 -0.4 29
2019-04-10 12:00:00 19.1 20 Oeste 39 Oeste 0 1011.1 0.1 33
2019-04-10 11:00:00 17.9 18 Noroeste 35 Noroeste 0 1011.1 0.6 35
2019-04-10 10:00:00 16.4 17 Noroeste 33 Noroeste 0 1011.1 0.9 40
2019-04-10 09:00:00 14.9 17 Noroeste 31 Noroeste 0 1011 0.8 45
2019-04-10 08:00:00 13.4 11 Oeste 29 Noroeste 0 1010.5 0.3 48
2019-04-10 07:00:00 13.7 15 Oeste 37 Oeste 0 1010.2 -0.1 47
2019-04-10 06:00:00 13.9 15 Noroeste 31 Noroeste 0 1010.2 -0.5 46
2019-04-10 05:00:00 13.1 8 Oeste 19 Oeste 0 1010.2 -0.8 49
2019-04-10 04:00:00 13.5 10 Oeste 30 Oeste 0 1010.3 -0.6 49
2019-04-10 03:00:00 13.1 12 Oeste 31 Noroeste 0 1010.7 -0.2 50
2019-04-10 02:00:00 12.5 6 Noroeste 19 Noroeste 0 1011 -0.2 49
2019-04-10 01:00:00 13.8 8 Oeste 31 Oeste 0 1010.9 -0.3 44
2019-04-10 00:00:00 14.3 14 Oeste 35 Oeste 0 1010.9 0.3 43
2019-04-09 23:00:00 13.3 7 Oeste 18 Oeste 0 1011.2 0.6 55
2019-04-09 22:00:00 12.5 12 Oeste 24 Sudoeste 0 1011.2 1.4 64
2019-04-09 21:00:00 13.3 7 Oeste 31 Noroeste 0 1010.6 1.3 61
2019-04-09 20:00:00 15.4 13 Noroeste 55 Noroeste 0.4 1010.6 1.5 52
2019-04-09 19:00:00 18.7 17 Oeste 37 Oeste 0 1009.8 -0.1 29
2019-04-09 18:00:00 19.8 19 Oeste 45 Oeste 0 1009.3 -1.5 27
2019-04-09 17:00:00 22.2 19 Oeste 45 Oeste 0 1009.1 -2 23
2019-04-09 16:00:00 22.3 19 Oeste 46 Oeste 0 1009.9 -1.7 24
2019-04-09 15:00:00 21 24 Sudoeste 44 Sudoeste 0 1010.8 -1.3 26
2019-04-09 14:00:00 21.2 18 Oeste 42 Oeste 0 1011.1 -1.1 28
2019-04-09 13:00:00 20.3 19 Oeste 39 Oeste 0 1011.6 -0.2 30
2019-04-09 12:00:00 18.8 21 Oeste 44 Oeste 0 1012.1 0.8 35
2019-04-09 11:00:00 17.9 22 Oeste 45 Oeste 0 1012.2 1.3 36
2019-04-09 10:00:00 16.9 19 Oeste 43 Oeste 0 1011.8 1.2 40
2019-04-09 09:00:00 15.5 23 Oeste 48 Noroeste 0 1011.3 1.2 44
2019-04-09 08:00:00 14.9 18 Oeste 44 Noroeste 0 1010.9 0.8 43
2019-04-09 07:00:00 14.6 6 Sudoeste 40 Oeste 0 1010.6 0.9 46
2019-04-09 06:00:00 15.7 12 Oeste 37 Noroeste 0 1010.1 -0.2 42
2019-04-09 05:00:00 17.1 17 Noroeste 43 Noroeste 0 1010.1 -0.4 38
2019-04-09 04:00:00 17.2 15 Oeste 28 Oeste 0 1009.7 -0.6 42
2019-04-09 03:00:00 17.4 12 Oeste 30 Oeste 0 1010.3 -0.1 46
2019-04-09 02:00:00 16.5 9 Sudoeste 19 Oeste 0 1010.5 0 50
2019-04-09 01:00:00 16.4 9 Oeste 18 Oeste 0 1010.3 0.1 50
2019-04-09 00:00:00 16.5 5 Oeste 15 Oeste 0 1010.4 0.6 50
2019-04-08 23:00:00 15.7 6 Oeste 13 Oeste 0 1010.5 0.7 59
2019-04-08 22:00:00 17 5 Noroeste 22 Sudoeste 0 1010.2 0.4 51
2019-04-08 21:00:00 18.3 9 Oeste 14 Sudoeste 0 1009.8 0.1 48
2019-04-08 20:00:00 18.9 4 Sudoeste 26 Sudoeste 0 1009.8 -0.6 50
2019-04-08 19:00:00 19.2 14 Sur 23 Sudoeste 0 1009.8 -0.9 52
2019-04-08 18:00:00 22.4 9 Sur 15 Sur 0 1009.7 -1.6 45
2019-04-08 17:00:00 21.5 10 Sudoeste 22 Sudoeste 0 1010.4 -1 47
2019-04-08 16:00:00 22.4 11 Sur 23 Sur 0 1010.7 -1.4 44
2019-04-08 15:00:00 19.7 5 Este 24 Este 0 1011.3 -1.2 46
2019-04-08 14:00:00 21.4 12 Oeste 35 Noroeste 0 1011.4 -1.1 37
2019-04-08 13:00:00 21.2 6 Sudoeste 15 Oeste 0 1012.1 -0.4 44
2019-04-08 12:00:00 17.2 5 Sudoeste 10 Sudoeste 0.4 1012.5 0.1 66
2019-04-08 11:00:00 15.7 5 Oeste 12 Sudoeste 0 1012.5 0.5 67
2019-04-08 10:00:00 14.7 3 Sudoeste 9 Noroeste 0 1012.5 0.7 62
2019-04-08 09:00:00 12.4 3 Oeste 10 Oeste 0 1012.4 0.2 73
2019-04-08 08:00:00 11.7 6 Oeste 12 Oeste 0 1012 -0.5 72
2019-04-08 07:00:00 11.9 7 Oeste 10 Oeste 0 1011.8 -0.9 68
2019-04-08 06:00:00 12 5 Sudoeste 8 Oeste 0 1012.2 -0.8 69
2019-04-08 05:00:00 12.4 6 Sudoeste 12 Oeste 0 1012.5 -0.9 61
2019-04-08 04:00:00 12.9 8 Sudoeste 11 Oeste 0 1012.7 -0.7 57
2019-04-08 03:00:00 14.4 8 Sudoeste 21 Noroeste 0 1013 -0.4 50
2019-04-08 02:00:00 15.6 13 Noroeste 21 Oeste 0 1013.4 0.2 42
2019-04-08 01:00:00 14.7 9 Oeste 15 Oeste 0 1013.4 0.7 46
2019-04-08 00:00:00 12.4 8 Sudoeste 12 Oeste 0 1013.4 1.3 62
2019-04-07 23:00:00 13.1 7 Oeste 13 Oeste 0 1013.2 1.8 60
2019-04-07 22:00:00 13.8 10 Sudoeste 17 Sudoeste 0 1012.7 1.9 57
2019-04-07 21:00:00 14.8 2 Sur 7 Noroeste 0 1012.1 2 47
2019-04-07 20:00:00 16.4 4 Sudoeste 18 Sudeste 0 1011.4 1.9 37
2019-04-07 19:00:00 17.5 9 Sudeste 20 Este 0 1010.8 1.6 39
2019-04-07 18:00:00 22.1 10 Oeste 31 Oeste 0 1010.1 1.1 21
2019-04-07 17:00:00 21.8 16 Oeste 31 Oeste 0 1009.5 0.6 22
2019-04-07 16:00:00 21 21 Noroeste 41 Noroeste 0 1009.2 0.8 23
2019-04-07 15:00:00 20.2 22 Noroeste 46 Noroeste 0 1009 0.6 27
2019-04-07 14:00:00 19.3 18 Oeste 46 Noroeste 0 1008.9 0.8 29
2019-04-07 13:00:00 17.8 22 Oeste 49 Oeste 0 1008.4 0.7 32
2019-04-07 12:00:00 16.4 25 Oeste 49 Oeste 0 1008.4 1.3 34
2019-04-07 11:00:00 15.2 24 Oeste 47 Oeste 0 1008.1 1.5 39
2019-04-07 10:00:00 13.6 18 Oeste 31 Noroeste 0 1007.7 1.8 46
2019-04-07 09:00:00 10.4 11 Noroeste 20 Oeste 0 1007.1 2 56
2019-04-07 08:00:00 9.2 5 Sudoeste 23 Noroeste 0 1006.6 1.5 61
2019-04-07 07:00:00 10.7 13 Noroeste 27 Oeste 0 1005.9 1.3 53
2019-04-07 06:00:00 10.6 10 Oeste 26 Noroeste 0 1005.1 0.2 53
2019-04-07 05:00:00 10.8 16 Oeste 39 Noroeste 0 1005.1 -0.1 52
2019-04-07 04:00:00 11 14 Oeste 32 Oeste 0 1004.6 -0.5 55
2019-04-07 03:00:00 9.4 4 Sudoeste 15 Sudoeste 0 1004.9 0 62
2019-04-07 02:00:00 9.8 9 Sudoeste 21 Sudoeste 0 1005.2 0.2 63
2019-04-07 01:00:00 11.2 11 Oeste 23 Oeste 0 1005.1 0.2 56
2019-04-07 00:00:00 10.9 12 Oeste 21 Oeste 0 1004.9 0.4 68
2019-04-06 23:00:00 9.9 3 Sudoeste 18 Oeste 0 1005 0.6 76
2019-04-06 22:00:00 10.7 12 Oeste 26 Oeste 0 1004.9 0.9 74
2019-04-06 21:00:00 10.3 6 Noroeste 13 Sudoeste 0 1004.5 -0.1 84
2019-04-06 20:00:00 11.4 10 Oeste 15 Oeste 0 1004.4 0.7 79
2019-04-06 19:00:00 12.3 4 Sur 16 Oeste 0 1004 -0.1 79
2019-04-06 18:00:00 10.9 15 Sudoeste 36 Sudoeste 3.8 1004.6 1.3 75
2019-04-06 17:00:00 12.4 3 Norte 42 Sudoeste 1 1003.7 -0.1 73
2019-04-06 16:00:00 14.3 14 Noroeste 46 Sudoeste 0.2 1004.1 -0.2 63
2019-04-06 15:00:00 17.3 19 Sudoeste 47 Sudoeste 0 1003.3 -1.4 41
2019-04-06 14:00:00 16.4 21 Sudoeste 42 Sudoeste 0 1003.8 -0.7 41
2019-04-06 13:00:00 16.8 25 Oeste 41 Noroeste 0 1004.3 0.3 35
2019-04-06 12:00:00 16 18 Oeste 36 Noroeste 0 1004.7 0.7 34
2019-04-06 11:00:00 14.6 18 Oeste 34 Oeste 0 1004.5 1.1 38
2019-04-06 10:00:00 13.1 15 Oeste 30 Oeste 0 1004 1.3 46
2019-04-06 09:00:00 10.2 6 Oeste 27 Oeste 0 1004 1.7 59
2019-04-06 08:00:00 8.1 3 Noroeste 14 Oeste 0 1003.4 1.8 68
2019-04-06 07:00:00 7.5 5 Oeste 21 Sudoeste 0 1002.7 1.3 72
2019-04-06 06:00:00 6.1 7 Sudoeste 13 Noroeste 0 1002.3 0.5 80
2019-04-06 05:00:00 8 8 Oeste 14 Oeste 0 1001.6 0.2 67
2019-04-06 04:00:00 8 6 Oeste 18 Oeste 0 1001.4 -0.2 70
2019-04-06 03:00:00 6.7 6 Oeste 9 Oeste 0 1001.8 0.7 81
2019-04-06 02:00:00 7.7 6 Sur 12 Oeste 0 1001.4 -0.1 74
2019-04-06 01:00:00 10.1 9 Oeste 24 Oeste 0 1001.6 1.3 64
2019-04-06 00:00:00 9.6 6 Sudoeste 26 Noroeste 0.2 1001.1 1.3 78
2019-04-05 23:00:00 10.5 18 Oeste 40 Oeste 0.4 1001.5 4 77
2019-04-05 22:00:00 10.6 3 Norte 12 Oeste 0 1000.3 0.5 89
2019-04-05 21:00:00 10.4 8 Sudoeste 13 Sur 0 999.8 0.8 89
2019-04-05 20:00:00 10.8 6 Nordeste 31 Noroeste 0.6 997.5 -0.8 83
2019-04-05 19:00:00 10.5 19 Noroeste 46 Oeste 4.2 999.8 0.9 84
2019-04-05 18:00:00 14.2 29 Noroeste 52 Noroeste 0 999 -0.3 58
2019-04-05 17:00:00 17.5 20 Sur 43 Sur 0 998.3 -1.7 60
2019-04-05 16:00:00 19.1 19 Sur 37 Sudoeste 0 998.9 -1.7 54
2019-04-05 15:00:00 17.8 13 Sur 24 Sur 0 999.3 -2 56
2019-04-05 14:00:00 18.5 10 Sudeste 24 Sudeste 0 1000 -1.4 55
2019-04-05 13:00:00 19.4 13 Sur 24 Sur 0 1000.6 -0.7 51
2019-04-05 12:00:00 18.8 6 Sur 15 Sur 0 1001.3 -0.1 48
2019-04-05 11:00:00 15.7 6 Sur 15 Sudoeste 0 1001.4 0.1 59
2019-04-05 10:00:00 14 4 Oeste 14 Oeste 0 1001.3 0 62
2019-04-05 09:00:00 13.4 5 Sudoeste 18 Sudoeste 0 1001.4 0 67
2019-04-05 08:00:00 11.7 9 Sudoeste 24 Sudoeste 0 1001.3 -0.4 71
2019-04-05 07:00:00 11.4 6 Oeste 21 Sudoeste 0 1001.3 -0.6 73
2019-04-05 06:00:00 11 9 Sudoeste 17 Sudoeste 0 1001.4 -1.1 76
2019-04-05 05:00:00 11.5 4 Norte 27 Sudoeste 0 1001.7 -1 74
2019-04-05 04:00:00 11.3 11 Sudoeste 31 Sudoeste 0 1001.9 -1.2 76
2019-04-05 03:00:00 11.1 8 Sudoeste 15 Sudoeste 0 1002.5 -0.6 73
2019-04-05 02:00:00 11.3 6 Sudoeste 17 Sudoeste 0 1002.7 -0.4 69
2019-04-05 01:00:00 11.9 11 Sudoeste 23 Sudoeste 0 1003.1 0.1 67
2019-04-05 00:00:00 11.8 9 Sudoeste 21 Oeste 0 1003.1 0.1 66
2019-04-04 23:00:00 11.7 8 Sudoeste 23 Sur 0 1003.1 0.2 63
2019-04-04 22:00:00 12.1 10 Sur 26 Sur 0 1003 0.1 61
2019-04-04 21:00:00 12.5 13 Sur 26 Sur 0 1003 0.1 57
2019-04-04 20:00:00 13.6 17 Sur 32 Sur 0 1002.9 -0.2 52
2019-04-04 19:00:00 15.6 15 Sur 28 Sur 0 1002.9 -0.6 46
2019-04-04 18:00:00 16.5 13 Sur 27 Sudeste 0 1002.9 -1.2 44
2019-04-04 17:00:00 16.8 14 Sudeste 31 Sudeste 0 1003.1 -1 41
2019-04-04 16:00:00 16.8 14 Sur 27 Sudeste 0 1003.5 -0.9 43
2019-04-04 15:00:00 16.1 13 Este 24 Este 0 1004.1 -0.3 47
2019-04-04 14:00:00 16.2 13 Este 27 Nordeste 0 1004.1 -0.1 43
2019-04-04 13:00:00 16.4 17 Nordeste 27 Nordeste 0 1004.4 0.7 42
2019-04-04 12:00:00 16.3 11 Norte 24 Norte 0 1004.4 1.1 43
2019-04-04 11:00:00 14.3 8 Norte 18 Nordeste 0 1004.2 1.5 47
2019-04-04 10:00:00 14.2 8 Norte 16 Norte 0 1003.7 1.4 48
2019-04-04 09:00:00 12.6 10 Nordeste 20 Nordeste 0 1003.3 1.3 53
2019-04-04 08:00:00 11.4 10 Norte 28 Nordeste 0 1002.7 0.9 56
2019-04-04 07:00:00 12.1 15 Nordeste 28 Nordeste 0 1002.3 0.4 51
2019-04-04 06:00:00 12 11 Nordeste 29 Norte 0 1002 -0.4 50
2019-04-04 05:00:00 12.2 17 Norte 32 Norte 0 1001.8 -0.6 50
2019-04-04 04:00:00 12.2 17 Norte 28 Nordeste 0 1001.9 -0.7 59
2019-04-04 03:00:00 12.3 14 Norte 35 Norte 0 1002.4 -0.1 62
2019-04-04 02:00:00 12.8 18 Nordeste 34 Nordeste 0 1002.4 0.6 62
2019-04-04 01:00:00 13 19 Nordeste 39 Nordeste 0 1002.6 3.4 68
2019-04-04 00:00:00 13.5 22 Norte 45 Norte 0 1002.5 4.2 72
2019-04-03 23:00:00 13.7 26 Norte 48 Norte 0 1001.8 3.3 75
2019-04-03 22:00:00 16.8 8 Oeste 19 Noroeste 0 999.2 0.6 60
2019-04-03 21:00:00 17.8 8 Oeste 17 Sudoeste 0 998.3 -1 53
2019-04-03 20:00:00 18.9 8 Noroeste 29 Sudoeste 0 998.5 -1.5 50
2019-04-03 19:00:00 20.4 14 Sudoeste 39 Sur 0 998.6 -2.3 40
2019-04-03 18:00:00 22.1 22 Sudoeste 44 Sudoeste 0 999.3 -3 37
2019-04-03 17:00:00 22.6 19 Sur 41 Sur 0 1000 -3.4 42
2019-04-03 16:00:00 23.1 20 Sur 44 Sudoeste 0 1000.9 -3.6 38
2019-04-03 15:00:00 22.3 18 Sur 35 Sur 0 1002.3 -3.3 45
2019-04-03 14:00:00 23 5 Sudeste 21 Sur 0 1003.4 -2.9 45
2019-04-03 13:00:00 20.4 9 Nordeste 20 Este 0 1004.5 -2.3 54
2019-04-03 12:00:00 20.9 10 Este 17 Este 0 1005.6 -1.6 51
2019-04-03 11:00:00 20 4 Sudoeste 11 Sudoeste 0 1006.3 -0.9 47
2019-04-03 10:00:00 16.5 5 Sudoeste 14 Oeste 0 1006.8 -0.6 73
2019-04-03 09:00:00 12.7 7 Oeste 13 Oeste 0 1007.2 -0.6 80
2019-04-03 08:00:00 10.2 8 Oeste 17 Oeste 0 1007.2 -1.3 85
2019-04-03 07:00:00 10.5 8 Oeste 18 Oeste 0 1007.4 -1.9 85
2019-04-03 06:00:00 10.1 10 Oeste 17 Oeste 0 1007.8 -2.2 88
2019-04-03 05:00:00 9.5 9 Oeste 13 Oeste 0.2 1008.5 -2.3 92
2019-04-03 04:00:00 9.3 5 Oeste 11 Sudoeste 0 1009.3 -2.1 92
2019-04-03 03:00:00 9.9 7 Oeste 12 Sudoeste 0 1010 -1.8 91
2019-04-03 02:00:00 10.5 4 Sudoeste 12 Oeste 0 1010.8 -1 88
2019-04-03 01:00:00 11.3 8 Sudoeste 11 Oeste 0 1011.4 -0.6 88
2019-04-03 00:00:00 11.7 8 Oeste 14 Sudoeste 0 1011.8 0.1 88
2019-04-02 23:00:00 11.9 10 Sudoeste 17 Sudoeste 0 1011.8 -0.4 89
2019-04-02 22:00:00 12.8 12 Sudoeste 22 Oeste 0 1012 0.8 87
2019-04-02 21:00:00 13.5 13 Oeste 33 Norte 0.2 1011.7 0.4 87
2019-04-02 20:00:00 14.6 15 Noroeste 35 Noroeste 3.6 1012.2 0.4 85
2019-04-02 19:00:00 17 12 Oeste 26 Sudoeste 0 1011.2 -1.3 74
2019-04-02 18:00:00 18.8 8 Sudoeste 24 Sudoeste 0 1011.3 -1.5 67
2019-04-02 17:00:00 20 8 Sur 18 Sur 0 1011.8 -1.7 64
2019-04-02 16:00:00 18.5 10 Sur 24 Sudoeste 0 1012.5 -1.7 69
2019-04-02 15:00:00 20.7 8 Sudoeste 28 Sur 0 1012.8 -1.7 56
2019-04-02 14:00:00 21.4 14 Sudoeste 29 Sudoeste 0 1013.5 -1 54
2019-04-02 13:00:00 20.4 13 Sudoeste 26 Sudoeste 0 1014.2 -0.2 57
2019-04-02 12:00:00 18.9 12 Sudoeste 18 Sudoeste 0 1014.5 -0.1 61
2019-04-02 11:00:00 16.8 7 Sudoeste 21 Sur 0 1014.5 0.6 76
2019-04-02 10:00:00 14.7 8 Sudoeste 16 Sudoeste 0 1014.4 0 90
2019-04-02 09:00:00 11.2 5 Sudoeste 12 Sudoeste 0 1014.6 0.3 96
2019-04-02 08:00:00 8.2 5 Sudoeste 9 Sudoeste 0 1013.9 -0.6 95
2019-04-02 07:00:00 8.5 4 Sur 12 Oeste 0.2 1014.4 -0.5 94
2019-04-02 06:00:00 9 6 Oeste 12 Sudoeste 0 1014.3 -1.2 95
2019-04-02 05:00:00 8.9 5 Oeste 8 Sudoeste 0 1014.5 -1.2 94
2019-04-02 04:00:00 9.4 7 Sudoeste 11 Oeste 0 1014.9 -0.8 94
2019-04-02 03:00:00 10 7 Sudoeste 10 Oeste 0 1015.5 -0.2 94
2019-04-02 02:00:00 9.4 5 Oeste 9 Oeste 0 1015.7 -0.3 93
2019-04-02 01:00:00 9.9 2 Sudoeste 10 Oeste 0 1015.7 0.2 92
2019-04-02 00:00:00 11 4 Oeste 8 Sudoeste 0 1015.7 0.9 92
2019-04-01 23:00:00 11.1 4 Oeste 9 Sudoeste 0 1016 1.5 89
2019-04-01 22:00:00 12.5 3 Oeste 13 Norte 0 1015.5 1.5 86
2019-04-01 21:00:00 13.5 9 Norte 15 Norte 0 1014.8 0.8 84
2019-04-01 20:00:00 14.4 6 Norte 16 Norte 0 1014.5 0.4 81
2019-04-01 19:00:00 14.7 9 Norte 20 Nordeste 0 1014 -0.2 81
2019-04-01 18:00:00 14.8 11 Nordeste 23 Nordeste 0 1014 -0.2 80
2019-04-01 17:00:00 15 14 Nordeste 23 Nordeste 0 1014.1 -0.4 79
2019-04-01 16:00:00 15.6 15 Norte 27 Nordeste 0 1014.2 -0.3 77
2019-04-01 15:00:00 16.7 14 Norte 29 Norte 0 1014.2 -0.2 74
2019-04-01 14:00:00 16.5 17 Norte 26 Norte 0 1014.5 0.6 73
2019-04-01 13:00:00 17.6 12 Norte 25 Norte 0 1014.5 1.3 74
2019-04-01 12:00:00 16.8 13 Norte 22 Norte 0 1014.4 1.9 71
2019-04-01 11:00:00 15.9 12 Norte 24 Norte 0 1013.9 1.9 74
2019-04-01 10:00:00 15.2 13 Norte 21 Norte 0 1013.2 1.8 72
2019-04-01 09:00:00 14.4 11 Nordeste 24 Nordeste 0 1012.5 1.3 79
2019-04-01 08:00:00 14 13 Nordeste 23 Nordeste 0 1012 0.8 82
2019-04-01 07:00:00 14 10 Nordeste 19 Nordeste 0 1011.4 0.2 87
2019-04-01 06:00:00 13.6 5 Nordeste 12 Nordeste 0 1011.2 -0.2 93
2019-04-01 05:00:00 13.5 3 Norte 7 Oeste 0 1011.2 -0.2 93
2019-04-01 04:00:00 13.7 0 Calma 10 Nordeste 0 1011.2 -0.3 92
2019-04-01 03:00:00 14.2 8 Nordeste 19 Nordeste 0 1011.4 -0.1 91
2019-04-01 02:00:00 14.3 10 Nordeste 28 Norte 0 1011.4 0.1 92
2019-04-01 01:00:00 14.1 17 Nordeste 31 Norte 0.2 1011.5 0.6 91
2019-04-01 00:00:00 13.8 19 Nordeste 36 Nordeste 0 1011.5 1.1 89
2019-03-31 23:00:00 14 21 Nordeste 39 Nordeste 0 1011.3 1.1 91
2019-03-31 22:00:00 14.2 22 Nordeste 39 Norte 0.2 1010.9 0.6 92
2019-03-31 21:00:00 13.9 20 Norte 38 Norte 0.4 1010.4 0 92
2019-03-31 20:00:00 13.8 22 Nordeste 43 Norte 0.2 1010.2 -0.6 91
2019-03-31 19:00:00 13.9 18 Norte 38 Nordeste 0 1010.3 -1.1 91
2019-03-31 18:00:00 13.8 22 Nordeste 39 Norte 0.8 1010.4 -2 92
2019-03-31 17:00:00 13.7 21 Norte 36 Norte 0 1010.8 -2.4 89
2019-03-31 16:00:00 13.6 21 Nordeste 35 Nordeste 0.2 1011.4 -2.1 90
2019-03-31 15:00:00 13.7 15 Nordeste 31 Norte 0.8 1012.4 -1.6 91
2019-03-31 14:00:00 13.7 11 Nordeste 31 Norte 1.2 1013.2 -0.4 91
2019-03-31 13:00:00 13.6 17 Nordeste 35 Nordeste 0.8 1013.5 -0.4 90
2019-03-31 12:00:00 13.6 14 Nordeste 39 Nordeste 0.8 1014 0 91
2019-03-31 11:00:00 13.3 18 Norte 32 Nordeste 1.8 1013.6 -0.5 92
2019-03-31 10:00:00 12.9 20 Nordeste 32 Nordeste 2.8 1013.9 -0.6 93
2019-03-31 09:00:00 12.3 18 Norte 29 Norte 2.6 1014 -1 93
2019-03-31 08:00:00 11.7 10 Noroeste 31 Noroeste 2.4 1014.1 -1.9 91
2019-03-31 07:00:00 11.5 15 Norte 29 Norte 1.2 1014.5 -2.2 90
2019-03-31 06:00:00 11.6 9 Oeste 36 Noroeste 1.2 1015 -2.1 87
2019-03-31 05:00:00 11.8 12 Noroeste 24 Norte 1.8 1016 -1.6 85
2019-03-31 03:00:00 13 13 Norte 25 Norte 0 1017.1 -1.7 68
2019-03-31 01:00:00 12.8 12 Norte 24 Norte 0 1017.6 -1.3 69
2019-03-31 00:00:00 12.8 12 Norte 24 Norte 0 1018.3 -0.7 69
2019-03-30 23:00:00 12.8 10 Norte 25 Norte 0 1018.8 -0.2 67
2019-03-30 22:00:00 13 15 Norte 27 Norte 0 1018.9 -0.1 69
2019-03-30 21:00:00 13.2 13 Norte 26 Norte 0 1019 0.3 68
2019-03-30 20:00:00 12.9 10 Norte 19 Nordeste 0 1019 0.4 66
2019-03-30 19:00:00 13.8 12 Norte 24 Norte 0 1019 -0.1 64
2019-03-30 18:00:00 15 14 Nordeste 27 Nordeste 0 1018.7 -1.1 60
2019-03-30 17:00:00 15.6 15 Nordeste 27 Nordeste 0 1018.6 -2.2 59
2019-03-30 16:00:00 15.8 15 Nordeste 28 Este 0 1019.1 -2.4 58
2019-03-30 15:00:00 16 15 Nordeste 29 Nordeste 0 1019.8 -2.1 59
2019-03-30 14:00:00 16.3 15 Nordeste 26 Nordeste 0 1020.8 -1.5 56
2019-03-30 13:00:00 17.6 10 Nordeste 23 Nordeste 0 1021.5 -0.9 50
2019-03-30 12:00:00 16.9 12 Nordeste 28 Norte 0 1021.9 -0.7 53
2019-03-30 11:00:00 17.3 16 Noroeste 31 Noroeste 0 1022.3 0 57
2019-03-30 10:00:00 15.2 14 Noroeste 26 Norte 0 1022.4 0.3 64
2019-03-30 09:00:00 14.2 11 Noroeste 20 Noroeste 0 1022.6 0.8 67
2019-03-30 08:00:00 12.4 9 Noroeste 15 Noroeste 0 1022.3 0 77
2019-03-30 07:00:00 11.2 9 Noroeste 18 Noroeste 0 1022.1 -0.4 80
2019-03-30 06:00:00 11.1 9 Norte 18 Noroeste 0 1021.8 -1.3 83
2019-03-30 05:00:00 7.3 7 Oeste 10 Sudoeste 0 1022.3 -1.5 90
2019-03-30 04:00:00 7.2 6 Sudoeste 12 Sudoeste 0 1022.5 -1.6 88
2019-03-30 03:00:00 7.3 9 Sudoeste 13 Oeste 0 1023.1 -1.4 87
2019-03-30 02:00:00 8.3 8 Oeste 14 Sudoeste 0 1023.8 -1 85
2019-03-30 01:00:00 7.5 8 Sudoeste 12 Sudoeste 0 1024.1 -0.7 85
2019-03-30 00:00:00 8.2 8 Sudoeste 10 Sudoeste 0 1024.5 0 81
2019-03-29 23:00:00 9.4 6 Sudoeste 10 Norte 0 1024.8 0.9 77
2019-03-29 22:00:00 13.1 6 Nordeste 17 Este 0 1024.8 0.9 62
2019-03-29 21:00:00 13.8 10 Nordeste 19 Nordeste 0 1024.5 0.5 58
2019-03-29 20:00:00 13.5 10 Nordeste 18 Nordeste 0 1023.9 -0.2 61
2019-03-29 19:00:00 14.2 10 Nordeste 21 Norte 0 1023.9 -0.3 62
2019-03-29 18:00:00 15.1 8 Nordeste 19 Nordeste 0 1024 -0.8 58
2019-03-29 17:00:00 16.1 9 Nordeste 21 Nordeste 0 1024.1 -1.4 53
2019-03-29 16:00:00 17 10 Nordeste 22 Nordeste 0 1024.2 -1.9 50
2019-03-29 15:00:00 17.9 8 Nordeste 21 Nordeste 0 1024.8 -1.7 48
2019-03-29 14:00:00 17.4 11 Nordeste 21 Nordeste 0 1025.5 -1.3 48
2019-03-29 13:00:00 17.6 8 Nordeste 21 Nordeste 0 1026.1 -0.6 47
2019-03-29 12:00:00 17.6 10 Nordeste 23 Nordeste 0 1026.5 -0.2 49
2019-03-29 11:00:00 17 13 Nordeste 21 Norte 0 1026.8 0.3 48
2019-03-29 10:00:00 16.2 6 Norte 16 Norte 0 1026.7 0.3 58
2019-03-29 09:00:00 12.7 6 Sudoeste 14 Oeste 0 1026.7 0.8 63
2019-03-29 08:00:00 8.1 9 Oeste 15 Oeste 0 1026.5 0.9 71
2019-03-29 07:00:00 5.5 5 Sudoeste 15 Sudoeste 0 1026.4 0.7 75
2019-03-29 06:00:00 7.3 11 Oeste 18 Oeste 0 1025.9 -0.1 68
2019-03-29 05:00:00 6.3 8 Oeste 15 Oeste 0 1025.6 -0.7 76
2019-03-29 04:00:00 5.6 10 Sudoeste 14 Oeste 0 1025.7 -0.7 84
2019-03-29 03:00:00 5.4 7 Sudoeste 12 Sudoeste 0 1026 -0.6 89
2019-03-29 02:00:00 6 9 Sudoeste 11 Sudoeste 0 1026.3 -0.3 90
2019-03-29 01:00:00 6.9 8 Oeste 13 Oeste 0 1026.4 -0.2 89
2019-03-29 00:00:00 7.6 7 Oeste 12 Oeste 0 1026.6 0.2 87
2019-03-28 23:00:00 9 6 Oeste 10 Sudoeste 0 1026.6 0.8 86
2019-03-28 22:00:00 8.9 8 Sudoeste 9 Sudoeste 0 1026.6 1 84
2019-03-28 21:00:00 10 6 Oeste 8 Oeste 0 1026.4 1 80
2019-03-28 20:00:00 12.5 3 Sur 9 Este 0 1025.8 0.3 70
2019-03-28 19:00:00 14.7 3 Este 15 Este 0 1025.6 0 64
2019-03-28 18:00:00 16 8 Este 17 Nordeste 0 1025.4 -0.6 58
2019-03-28 17:00:00 16.9 8 Este 23 Nordeste 0 1025.5 -0.9 55
2019-03-28 16:00:00 16.7 10 Nordeste 22 Nordeste 0 1025.6 -1.3 53
2019-03-28 15:00:00 17.7 9 Nordeste 20 Norte 0 1026 -1.1 47
2019-03-28 14:00:00 17.6 12 Nordeste 23 Norte 0 1026.4 -0.6 42
2019-03-28 13:00:00 17.5 14 Norte 30 Nordeste 0 1026.9 0.2 40
2019-03-28 12:00:00 17.2 16 Norte 28 Nordeste 0 1027.1 0.7 43
2019-03-28 11:00:00 17.3 14 Norte 28 Norte 0 1027 0.6 40
2019-03-28 10:00:00 16.2 17 Norte 27 Norte 0 1026.7 0.6 43
2019-03-28 09:00:00 14.3 17 Norte 28 Noroeste 0 1026.4 0.5 50
2019-03-28 08:00:00 8.8 9 Sudoeste 13 Sudoeste 0 1026.4 0.7 68
2019-03-28 07:00:00 8.8 6 Oeste 19 Noroeste 0 1026.1 0.8 68
2019-03-28 06:00:00 9 10 Noroeste 17 Oeste 0 1025.9 0.4 70
2019-03-28 05:00:00 6.1 7 Sudoeste 15 Sudoeste 0 1025.7 0.1 76
2019-03-28 04:00:00 5.4 12 Sudoeste 18 Sudoeste 0 1025.3 -0.7 74
2019-03-28 03:00:00 5.6 11 Oeste 16 Sudoeste 0 1025.5 -0.2 73
2019-03-28 02:00:00 5.5 11 Sudoeste 15 Sudoeste 0 1025.6 0.1 73
2019-03-28 01:00:00 6.7 9 Sudoeste 19 Oeste 0 1026 1 69
2019-03-28 00:00:00 7.7 9 Oeste 16 Oeste 0 1025.7 1.4 70
2019-03-27 23:00:00 7.1 9 Sudoeste 14 Noroeste 0 1025.5 1.7 76
2019-03-27 22:00:00 7.7 7 Sudoeste 12 Sudoeste 0 1025 1.4 73
2019-03-27 21:00:00 10 5 Oeste 11 Sudoeste 0 1024.3 1.2 67
2019-03-27 20:00:00 12.4 5 Norte 13 Nordeste 0 1023.8 0.8 61
2019-03-27 19:00:00 14.2 4 Nordeste 20 Este 0 1023.6 0.5 48
2019-03-27 18:00:00 15.5 13 Nordeste 27 Nordeste 0 1023.1 -0.1 48
2019-03-27 17:00:00 16.8 15 Norte 28 Norte 0 1023 -0.4 44
2019-03-27 16:00:00 16.9 20 Norte 31 Nordeste 0 1023.1 -0.3 40
2019-03-27 15:00:00 17.7 19 Norte 30 Norte 0 1023.2 -0.4 46
2019-03-27 14:00:00 17.7 15 Norte 38 Norte 0 1023.4 -0.1 45
2019-03-27 13:00:00 17.6 20 Norte 32 Norte 0 1023.4 0.3 45
2019-03-27 12:00:00 17.4 19 Noroeste 32 Norte 0 1023.6 0.6 45
2019-03-27 11:00:00 17 18 Norte 31 Norte 0 1023.5 0.7 44
2019-03-27 10:00:00 15.8 15 Noroeste 30 Norte 0 1023.1 0.9 50
2019-03-27 09:00:00 14 15 Noroeste 25 Noroeste 0 1023 0.9 54
2019-03-27 08:00:00 12.1 10 Noroeste 21 Noroeste 0 1022.8 0.7 65
2019-03-27 07:00:00 10.6 13 Norte 21 Norte 0 1022.2 -0.1 65
2019-03-27 06:00:00 10.1 11 Noroeste 22 Noroeste 0 1022.1 -0.8 66
2019-03-27 05:00:00 5.4 8 Sudoeste 14 Oeste 0 1022.1 -1.1 81
2019-03-27 04:00:00 6.4 10 Sudoeste 14 Oeste 0 1022.3 -0.7 75
2019-03-27 03:00:00 6.6 9 Sudoeste 14 Oeste 0 1022.9 0 74
2019-03-27 02:00:00 8.3 10 Oeste 14 Sudoeste 0 1023.2 0.7 70
2019-03-27 01:00:00 8.6 10 Sudoeste 12 Oeste 0 1023 0.9 66
2019-03-27 00:00:00 11.8 7 Norte 20 Nordeste 0 1022.9 1.1 57